Time;durP1;ratioP1;P1;durP2;ratioP2;P2;SDS_P1;SDS_P2;PMS_P1;PMS_P2;Temp;Humidity;BMP_temperature;BMP_pressure;BME280_temperature;BME280_humidity;BME280_pressure;Samples;Min_cycle;Max_cycle;Signal;HPM_P1;HPM_P2
2023/01/29 00:01:55;;;;;;;;;50.50;36.25;;;;;5.77;49.51;102603.53;5014249;28;45537;-62
2023/01/29 00:04:20;;;;;;;;;49.00;36.00;;;;;5.77;49.91;102614.13;5014030;28;45361;-64
2023/01/29 00:06:46;;;;;;;;;46.50;35.25;;;;;5.76;49.93;102604.31;4995330;28;45373;-63
2023/01/29 00:09:12;;;;;;;;;52.75;40.00;;;;;5.76;50.13;102609.63;5013812;28;45368;-64
2023/01/29 00:11:38;;;;;;;;;55.00;39.00;;;;;5.68;49.77;102585.19;4979638;28;45389;-64
2023/01/29 00:14:04;;;;;;;;;51.75;36.50;;;;;5.77;50.20;102604.44;5013935;28;46278;-64
2023/01/29 00:16:30;;;;;;;;;45.25;34.25;;;;;5.74;49.59;102604.19;5013851;28;45609;-63
2023/01/29 00:18:55;;;;;;;;;48.75;37.50;;;;;5.67;49.86;102592.19;5013977;28;45920;-64
2023/01/29 00:21:21;;;;;;;;;68.50;53.50;;;;;5.66;50.30;102590.38;5014000;28;45327;-64
2023/01/29 00:23:48;;;;;;;;;55.75;36.75;;;;;5.70;49.66;102587.13;5013604;28;45621;-65
2023/01/29 00:26:14;;;;;;;;;60.00;43.25;;;;;5.79;49.99;102602.84;5013576;28;45221;-66
2023/01/29 00:28:39;;;;;;;;;45.25;36.75;;;;;5.43;49.51;102529.38;5021611;28;45657;-64
2023/01/29 00:31:10;;;;;;;;;49.00;35.75;;;;;5.83;49.67;102598.69;5013794;28;45500;-64
2023/01/29 00:33:36;;;;;;;;;51.00;33.50;;;;;5.85;49.54;102603.28;5013202;28;46421;-62
2023/01/29 00:36:06;;;;;;;;;49.00;36.00;;;;;5.82;49.54;102600.41;5011908;28;45403;-64
2023/01/29 00:38:33;;;;;;;;;47.25;33.50;;;;;5.81;49.71;102592.34;5010652;28;45431;-63
2023/01/29 00:46:38;;;;;;;;;48.25;37.00;;;;;5.80;49.85;102590.50;5009753;28;45562;-64
2023/01/29 00:49:04;;;;;;;;;55.00;38.25;;;;;5.77;49.95;102590.25;5017298;28;45438;-64
2023/01/29 00:51:30;;;;;;;;;64.25;43.25;;;;;5.80;49.99;102590.50;4996907;28;45540;-63
2023/01/29 00:53:57;;;;;;;;;48.75;33.50;;;;;5.72;49.89;102574.00;5015783;28;46956;-64
2023/01/29 00:56:27;;;;;;;;;46.75;35.25;;;;;5.77;49.69;102595.56;5020224;28;45354;-64
2023/01/29 00:58:52;;;;;;;;;54.00;36.50;;;;;5.78;50.15;102593.03;5017307;28;45376;-64
2023/01/29 01:04:02;;;;;;;;;50.00;37.50;;;;;5.78;49.90;102592.13;5013472;28;45273;-63
2023/01/29 01:06:28;;;;;;;;;45.25;35.00;;;;;5.73;49.57;102584.72;5012866;28;45369;-65
2023/01/29 01:11:37;;;;;;;;;60.75;46.50;;;;;5.78;49.60;102578.84;5013590;28;45161;-63
2023/01/29 01:14:02;;;;;;;;;46.00;36.75;;;;;5.73;50.22;102584.72;5010301;28;64295;-64
2023/01/29 01:16:28;;;;;;;;;39.75;34.25;;;;;5.74;50.11;102575.03;5013469;28;45392;-63
2023/01/29 01:18:53;;;;;;;;;62.50;41.50;;;;;5.70;50.22;102578.28;5013181;28;45420;-63
2023/01/29 01:21:19;;;;;;;;;44.50;36.00;;;;;5.66;49.92;102584.13;4993177;28;45486;-64
2023/01/29 01:23:44;;;;;;;;;37.75;31.50;;;;;5.64;50.44;102589.34;5013518;28;60500;-63
2023/01/29 01:26:10;;;;;;;;;49.00;34.50;;;;;5.60;50.23;102584.59;5013185;28;45483;-63
2023/01/29 01:28:35;;;;;;;;;45.75;35.50;;;;;5.63;50.59;102584.84;5017034;28;45380;-64
2023/01/29 01:31:10;;;;;;;;;56.00;38.00;;;;;5.67;50.68;102586.00;4994290;28;45618;-64
2023/01/29 01:33:36;;;;;;;;;60.25;42.25;;;;;5.69;50.92;102581.72;5022454;28;46041;-64
2023/01/29 01:36:02;;;;;;;;;43.50;33.50;;;;;5.68;51.12;102583.47;4997075;28;45373;-64
2023/01/29 01:38:27;;;;;;;;;51.75;38.00;;;;;5.64;50.78;102599.00;5014790;28;45372;-64
2023/01/29 01:40:53;;;;;;;;;53.25;39.25;;;;;5.51;51.05;102568.94;5014330;28;45504;-65
2023/01/29 01:43:18;;;;;;;;;55.00;41.25;;;;;5.59;50.71;102582.75;5015303;28;45457;-66
2023/01/29 01:45:45;;;;;;;;;56.25;40.25;;;;;5.58;50.92;102587.97;5002814;28;45366;-65
2023/01/29 01:48:24;;;;;;;;;53.50;35.00;;;;;5.53;51.52;102566.41;5014432;28;45473;-65
2023/01/29 01:50:58;;;;;;;;;53.00;38.25;;;;;5.52;50.93;102581.34;5020463;28;45470;-65
2023/01/29 01:53:39;;;;;;;;;47.00;37.00;;;;;5.58;51.21;102601.22;5021171;28;45159;-62
2023/01/29 01:56:09;;;;;;;;;61.00;44.00;;;;;5.59;51.31;102589.78;5022426;28;45285;-63
2023/01/29 01:58:58;;;;;;;;;47.00;36.00;;;;;5.56;50.96;102590.50;5016683;28;45378;-64
2023/01/29 02:01:28;;;;;;;;;40.25;37.75;;;;;5.50;51.15;102579.41;5015676;28;45500;-62
2023/01/29 02:09:37;;;;;;;;;53.25;36.00;;;;;5.45;51.71;102602.91;5017612;28;45317;-64
2023/01/29 02:12:11;;;;;;;;;46.50;36.25;;;;;5.44;51.64;102597.50;5020780;28;45469;-64
2023/01/29 02:14:39;;;;;;;;;43.75;38.25;;;;;5.47;51.64;102609.25;5020949;28;45640;-62
2023/01/29 02:17:06;;;;;;;;;46.00;35.00;;;;;5.49;52.07;102605.00;5025979;28;45335;-63
2023/01/29 02:19:56;;;;;;;;;45.50;35.00;;;;;5.48;51.64;102588.97;5024314;28;45408;-62
2023/01/29 02:22:39;;;;;;;;;47.00;31.25;;;;;5.52;51.67;102606.97;5017418;28;45609;-64
2023/01/29 02:25:13;;;;;;;;;46.00;35.75;;;;;5.50;51.80;102600.63;5033343;28;46399;-64
2023/01/29 02:27:48;;;;;;;;;41.25;32.25;;;;;5.48;51.57;102605.81;5021336;28;45478;-63
2023/01/29 02:30:24;;;;;;;;;44.25;37.75;;;;;5.44;52.40;102605.44;5020463;28;45376;-64
2023/01/29 02:33:08;;;;;;;;;47.75;34.75;;;;;5.37;52.05;102601.41;5012310;28;45278;-64
2023/01/29 02:35:41;;;;;;;;;53.25;39.00;;;;;5.35;52.47;102595.06;5017626;28;46840;-65
2023/01/29 02:38:16;;;;;;;;;49.00;38.50;;;;;5.40;52.32;102603.38;5001869;28;45313;-63
2023/01/29 02:41:00;;;;;;;;;42.75;37.00;;;;;5.38;52.42;102611.22;5029898;28;45295;-65
2023/01/29 02:43:51;;;;;;;;;57.25;40.00;;;;;5.37;52.59;102605.78;5016671;28;45618;-66
2023/01/29 02:46:31;;;;;;;;;57.25;44.25;;;;;5.37;52.25;102598.75;5011679;28;46229;-63
2023/01/29 02:49:22;;;;;;;;;56.25;38.50;;;;;5.31;52.73;102592.97;5021856;28;45252;-64
2023/01/29 02:52:09;;;;;;;;;51.00;36.00;;;;;5.28;52.91;102598.03;5014516;28;45329;-65
2023/01/29 02:54:49;;;;;;;;;49.50;36.00;;;;;5.23;53.25;102586.16;5025379;28;45408;-65
2023/01/29 02:57:20;;;;;;;;;53.50;37.75;;;;;5.21;53.02;102582.47;5018319;28;47375;-63
2023/01/29 03:00:13;;;;;;;;;47.50;39.75;;;;;5.19;53.03;102586.72;5001896;28;46057;-64
2023/01/29 03:02:47;;;;;;;;;47.00;37.00;;;;;5.16;53.71;102579.44;5009888;28;45030;-63
2023/01/29 03:05:24;;;;;;;;;44.75;36.50;;;;;5.18;52.89;102564.63;5015537;28;45325;-64
2023/01/29 03:07:55;;;;;;;;;46.50;38.25;;;;;5.24;53.38;102565.06;5018737;28;46076;-63
2023/01/29 03:10:26;;;;;;;;;54.00;36.25;;;;;5.26;53.34;102563.47;5010857;28;45457;-63
2023/01/29 03:12:59;;;;;;;;;43.00;36.00;;;;;5.22;52.98;102563.13;5018021;28;45499;-62
2023/01/29 03:15:30;;;;;;;;;39.75;34.00;;;;;5.17;53.04;102560.09;5017230;28;45531;-63
2023/01/29 03:18:16;;;;;;;;;40.75;35.50;;;;;5.10;53.04;102545.47;5018976;28;46135;-64
2023/01/29 03:20:50;;;;;;;;;55.25;39.50;;;;;5.25;53.36;102573.97;5011223;28;45582;-65
2023/01/29 03:32:02;;;;;;;;;42.25;37.75;;;;;5.27;52.53;102564.41;5030683;28;45291;-64
2023/01/29 03:34:33;;;;;;;;;47.25;37.25;;;;;5.26;53.14;102551.94;5019346;28;45173;-63
2023/01/29 03:37:08;;;;;;;;;41.25;35.75;;;;;5.29;53.52;102563.69;5013497;28;45440;-62
2023/01/29 03:39:35;;;;;;;;;34.75;29.25;;;;;5.30;52.99;102559.34;5013252;28;45403;-63
2023/01/29 03:42:26;;;;;;;;;38.75;32.25;;;;;5.32;53.30;102560.38;5011824;28;45226;-62
2023/01/29 03:44:54;;;;;;;;;52.00;39.00;;;;;5.30;53.10;102575.25;5013253;28;45524;-63
2023/01/29 03:47:26;;;;;;;;;40.75;36.50;;;;;5.30;53.09;102565.56;5016118;28;45339;-63
2023/01/29 03:50:04;;;;;;;;;36.25;34.50;;;;;5.30;53.08;102562.91;5014687;28;46387;-63
2023/01/29 03:52:56;;;;;;;;;52.50;38.25;;;;;5.35;52.93;102565.91;5014873;28;45669;-63
2023/01/29 03:55:23;;;;;;;;;41.00;34.00;;;;;5.31;53.14;102561.16;5014659;28;45511;-64
2023/01/29 03:58:17;;;;;;;;;36.75;35.50;;;;;4.93;53.34;102498.19;5017496;28;45465;-63
2023/01/29 04:01:02;;;;;;;;;51.00;36.50;;;;;5.21;53.15;102567.47;5018643;28;47401;-64
2023/01/29 04:03:35;;;;;;;;;41.50;33.75;;;;;5.23;53.29;102562.28;5016397;28;45507;-62
2023/01/29 04:06:17;;;;;;;;;45.75;37.25;;;;;5.19;53.58;102554.94;5014046;28;45446;-63
2023/01/29 04:09:02;;;;;;;;;41.50;33.25;;;;;5.13;53.51;102553.66;5012739;28;45296;-63
2023/01/29 04:11:28;;;;;;;;;39.75;38.75;;;;;5.23;53.07;102564.94;5017768;28;46159;-63
2023/01/29 04:13:56;;;;;;;;;48.00;36.25;;;;;5.21;53.40;102562.19;5015079;28;45340;-61
2023/01/29 04:16:30;;;;;;;;;37.50;32.75;;;;;5.19;53.25;102554.94;5011468;28;45526;-65
2023/01/29 04:18:56;;;;;;;;;38.00;33.50;;;;;5.04;53.30;102541.41;5014354;28;45493;-62
2023/01/29 04:21:21;;;;;;;;;44.00;36.50;;;;;5.15;53.84;102553.78;5014018;28;45451;-62
2023/01/29 04:23:47;;;;;;;;;43.25;31.75;;;;;5.14;53.85;102549.28;5021682;28;45316;-64
2023/01/29 04:26:44;;;;;;;;;43.00;33.50;;;;;5.12;53.47;102561.47;5013426;28;54668;-65
2023/01/29 04:29:12;;;;;;;;;48.75;37.50;;;;;5.11;54.01;102563.19;4977201;28;45459;-64
2023/01/29 04:31:52;;;;;;;;;44.00;35.00;;;;;5.10;53.98;102566.66;5013854;28;46094;-63
2023/01/29 04:34:27;;;;;;;;;38.50;37.00;;;;;5.13;53.54;102571.25;5012195;28;45408;-62
2023/01/29 04:36:58;;;;;;;;;55.50;42.00;;;;;5.09;54.27;102572.75;5013972;28;45328;-63
2023/01/29 04:39:30;;;;;;;;;44.50;38.50;;;;;5.07;54.11;102568.16;5027154;28;45304;-63
2023/01/29 04:42:21;;;;;;;;;49.25;37.50;;;;;5.02;54.05;102573.09;5013466;28;46118;-64
2023/01/29 04:44:58;;;;;;;;;40.25;37.00;;;;;5.03;54.50;102572.25;5013640;28;45363;-63
2023/01/29 04:47:32;;;;;;;;;47.50;37.00;;;;;5.04;54.60;102576.78;5013910;28;45583;-65
2023/01/29 04:50:10;;;;;;;;;41.50;34.75;;;;;4.99;54.27;102576.41;5033743;28;45436;-65
2023/01/29 04:52:48;;;;;;;;;48.00;39.50;;;;;4.97;54.29;102579.75;5027151;28;46259;-65
2023/01/29 04:55:39;;;;;;;;;55.25;37.75;;;;;5.01;54.44;102583.56;5028219;28;45301;-65
2023/01/29 04:58:32;;;;;;;;;50.50;39.25;;;;;5.02;54.62;102577.47;5031538;28;45256;-64
2023/01/29 05:01:01;;;;;;;;;48.75;38.50;;;;;4.92;54.24;102563.50;5026442;28;44989;-63
2023/01/29 05:03:30;;;;;;;;;57.25;38.50;;;;;5.07;54.89;102590.25;5012263;28;45630;-63
2023/01/29 05:05:59;;;;;;;;;46.25;38.25;;;;;4.98;54.35;102574.56;5030934;28;45139;-65
2023/01/29 05:08:28;;;;;;;;;43.50;36.25;;;;;4.97;54.52;102580.66;5027874;28;45140;-63
2023/01/29 05:10:56;;;;;;;;;52.25;40.25;;;;;4.86;54.44;102570.94;5030805;28;45306;-65
2023/01/29 05:13:24;;;;;;;;;49.75;39.00;;;;;4.95;54.79;102592.88;5007776;28;45282;-64
2023/01/29 05:15:59;;;;;;;;;47.75;41.00;;;;;4.93;54.49;102582.94;5027477;28;45406;-65
2023/01/29 05:18:24;;;;;;;;;45.50;38.00;;;;;4.91;55.16;102577.53;4990094;28;45480;-64
2023/01/29 05:20:51;;;;;;;;;52.25;37.25;;;;;4.87;55.17;102569.25;5012158;28;45468;-64
2023/01/29 05:23:17;;;;;;;;;55.75;36.75;;;;;4.94;55.17;102568.91;5014991;28;45494;-63
2023/01/29 05:25:44;;;;;;;;;44.50;34.50;;;;;4.93;54.86;102561.75;5022677;28;45385;-64
2023/01/29 05:28:16;;;;;;;;;47.00;36.75;;;;;4.71;54.83;102504.47;5016596;28;45591;-63
2023/01/29 05:30:46;;;;;;;;;39.75;36.50;;;;;5.06;54.53;102566.28;5021929;28;45510;-65
2023/01/29 05:33:17;;;;;;;;;44.75;38.50;;;;;5.05;54.62;102565.38;5029423;28;45501;-63
2023/01/29 05:35:43;;;;;;;;;42.50;35.75;;;;;5.05;53.87;102559.13;5022440;28;45279;-65
2023/01/29 05:38:09;;;;;;;;;40.25;34.75;;;;;4.98;54.15;102569.28;5029661;28;50244;-65
2023/01/29 05:40:35;;;;;;;;;50.50;39.75;;;;;4.91;54.59;102560.72;5012115;28;45298;-66
2023/01/29 05:43:00;;;;;;;;;45.75;35.75;;;;;4.81;54.44;102551.13;5022779;28;45643;-63
2023/01/29 05:45:26;;;;;;;;;50.50;38.50;;;;;4.87;54.70;102570.16;5031903;28;45347;-65
2023/01/29 05:47:55;;;;;;;;;44.25;37.00;;;;;4.85;54.80;102571.78;5016960;28;46060;-63
2023/01/29 05:50:21;;;;;;;;;46.50;36.50;;;;;4.82;54.38;102566.22;5020017;28;46207;-64
2023/01/29 05:52:46;;;;;;;;;42.00;36.00;;;;;4.91;54.69;102568.66;5033231;28;45730;-63
2023/01/29 05:55:11;;;;;;;;;41.50;36.75;;;;;4.92;54.82;102567.88;5029849;28;45240;-64
2023/01/29 05:57:39;;;;;;;;;41.75;34.00;;;;;4.92;54.34;102568.78;5020334;28;45510;-65
2023/01/29 06:00:05;;;;;;;;;50.75;35.50;;;;;4.92;54.25;102558.19;5016634;28;45584;-66
2023/01/29 06:02:30;;;;;;;;;42.50;34.75;;;;;4.95;54.84;102569.03;5016404;28;47139;-63
2023/01/29 06:04:56;;;;;;;;;35.00;32.00;;;;;4.95;54.61;102566.38;5018264;28;45245;-65
2023/01/29 06:07:22;;;;;;;;;44.75;34.75;;;;;4.90;54.15;102564.16;5016377;28;45356;-65
2023/01/29 06:09:47;;;;;;;;;49.50;33.75;;;;;4.95;54.53;102570.75;5016807;28;45414;-66
2023/01/29 06:12:12;;;;;;;;;38.50;28.75;;;;;4.97;54.25;102572.72;5021871;28;45907;-67
2023/01/29 06:14:38;;;;;;;;;42.50;35.25;;;;;4.95;54.54;102579.63;5000824;28;45432;-67
2023/01/29 06:17:03;;;;;;;;;36.00;34.00;;;;;4.95;54.15;102581.34;5016364;28;45467;-62
2023/01/29 06:19:29;;;;;;;;;40.75;33.75;;;;;4.91;54.05;102582.81;4998247;28;45560;-65
2023/01/29 06:21:54;;;;;;;;;50.25;36.00;;;;;4.92;54.71;102586.41;5016296;28;45740;-64
2023/01/29 06:24:20;;;;;;;;;40.50;34.25;;;;;4.90;54.02;102583.66;5016111;28;45460;-64
2023/01/29 06:26:45;;;;;;;;;48.25;37.00;;;;;4.61;54.37;102524.00;5026232;28;45372;-65
2023/01/29 06:29:10;;;;;;;;;36.25;33.50;;;;;4.95;53.75;102589.28;5018143;28;45656;-64
2023/01/29 06:31:36;;;;;;;;;42.00;35.75;;;;;4.94;54.64;102595.41;5015936;28;53410;-63
2023/01/29 06:34:02;;;;;;;;;52.00;34.00;;;;;4.94;53.95;102584.81;5015245;28;45372;-63
2023/01/29 06:36:28;;;;;;;;;46.00;34.25;;;;;5.03;54.38;102597.84;5015691;28;45536;-63
2023/01/29 06:38:53;;;;;;;;;53.50;34.00;;;;;5.06;54.76;102595.44;5015793;28;45907;-62
2023/01/29 06:41:23;;;;;;;;;50.00;36.00;;;;;5.04;54.06;102597.97;5015540;28;53764;-63
2023/01/29 06:43:49;;;;;;;;;45.00;36.00;;;;;5.00;54.51;102582.66;5015619;28;45494;-63
2023/01/29 06:46:15;;;;;;;;;48.00;36.75;;;;;4.96;54.43;102591.13;5015912;28;45492;-63
2023/01/29 06:48:40;;;;;;;;;50.75;37.50;;;;;4.88;54.44;102566.69;5019672;28;45884;-62
2023/01/29 06:51:07;;;;;;;;;52.25;35.50;;;;;5.07;54.09;102598.22;5021209;28;46072;-62
2023/01/29 06:53:34;;;;;;;;;52.00;38.50;;;;;5.02;54.64;102580.13;5018083;28;45554;-63
2023/01/29 06:55:59;;;;;;;;;38.75;33.25;;;;;5.13;54.63;102590.75;5018143;28;45600;-63
2023/01/29 06:58:25;;;;;;;;;43.50;33.00;;;;;5.07;54.26;102581.41;5017853;28;45399;-65
2023/01/29 07:00:51;;;;;;;;;41.50;35.75;;;;;5.06;54.47;102593.69;5019919;28;45428;-64
2023/01/29 07:03:16;;;;;;;;;41.50;37.00;;;;;5.04;54.42;102597.97;5017631;28;45411;-64
2023/01/29 07:05:41;;;;;;;;;32.75;29.50;;;;;5.01;54.50;102596.81;5020420;28;45401;-64
2023/01/29 07:08:08;;;;;;;;;37.50;35.50;;;;;4.99;54.61;102583.44;5017389;28;45245;-64
2023/01/29 07:10:34;;;;;;;;;31.00;31.00;;;;;5.03;54.56;102597.84;5017256;28;46990;-64
2023/01/29 07:12:59;;;;;;;;;48.25;36.25;;;;;5.02;54.89;102601.31;5017194;28;45418;-64
2023/01/29 07:15:26;;;;;;;;;41.00;34.25;;;;;4.94;55.02;102591.00;5017225;28;45260;-63
2023/01/29 07:18:03;;;;;;;;;40.75;34.25;;;;;5.04;55.00;102597.06;5020132;28;45394;-65
2023/01/29 07:20:29;;;;;;;;;45.00;36.50;;;;;5.07;54.71;102589.34;5017392;28;45943;-64
2023/01/29 07:22:56;;;;;;;;;55.75;38.75;;;;;5.04;54.88;102583.81;5019178;28;45391;-65
2023/01/29 07:25:22;;;;;;;;;50.00;39.00;;;;;4.98;54.78;102570.97;5020523;28;45324;-65
2023/01/29 07:27:48;;;;;;;;;43.25;36.00;;;;;5.12;54.87;102590.63;5021762;28;45273;-66
2023/01/29 07:30:14;;;;;;;;;46.75;38.00;;;;;5.05;54.56;102580.34;5016657;28;45698;-67
2023/01/29 07:32:39;;;;;;;;;45.50;35.00;;;;;5.14;54.37;102595.22;5013559;28;45373;-64
2023/01/29 07:35:05;;;;;;;;;63.50;46.75;;;;;5.05;54.34;102586.56;5023080;28;45460;-64
2023/01/29 07:37:30;;;;;;;;;33.00;31.50;;;;;5.09;54.65;102590.38;5015386;28;45350;-64
2023/01/29 07:39:56;;;;;;;;;54.50;37.75;;;;;5.04;54.42;102584.72;5023665;28;45480;-64
2023/01/29 07:42:22;;;;;;;;;44.50;39.00;;;;;5.08;55.19;102592.13;5017696;28;46295;-67
2023/01/29 07:44:47;;;;;;;;;41.00;33.00;;;;;5.13;54.81;102590.75;5014917;28;45562;-66
2023/01/29 07:47:12;;;;;;;;;44.50;38.25;;;;;5.11;54.56;102599.38;5013644;28;45268;-66
2023/01/29 07:49:38;;;;;;;;;57.25;40.00;;;;;5.08;54.71;102594.78;5014439;28;45889;-67
2023/01/29 07:52:03;;;;;;;;;63.25;49.00;;;;;5.05;54.11;102594.53;5014118;28;47177;-65
2023/01/29 07:54:29;;;;;;;;;37.75;24.00;;;;;5.08;54.37;102592.13;5017360;28;45471;-67
2023/01/29 07:56:55;;;;;;;;;48.50;34.00;;;;;5.05;54.36;102590.94;5014715;28;45487;-65
2023/01/29 07:59:20;;;;;;;;;51.00;38.75;;;;;5.10;54.91;102600.19;5014338;28;45341;-66
2023/01/29 08:01:45;;;;;;;;;43.50;38.25;;;;;5.08;54.25;102599.13;5013728;28;50155;-64
2023/01/29 08:04:11;;;;;;;;;46.50;37.50;;;;;5.07;54.38;102590.25;5014320;28;45364;-63
2023/01/29 08:06:36;;;;;;;;;40.75;33.25;;;;;5.12;54.62;102588.88;4993993;28;45434;-64
2023/01/29 08:09:02;;;;;;;;;47.75;39.00;;;;;5.12;54.46;102590.63;5014173;28;55079;-64
2023/01/29 08:11:27;;;;;;;;;44.75;36.75;;;;;5.20;54.24;102601.81;4996219;28;45332;-67
2023/01/29 08:13:54;;;;;;;;;46.75;33.50;;;;;5.24;54.38;102599.53;5014483;28;45475;-68
2023/01/29 08:16:19;;;;;;;;;55.00;40.00;;;;;5.29;54.56;102599.88;5021405;28;45472;-63
2023/01/29 08:18:47;;;;;;;;;54.75;42.25;;;;;5.14;54.84;102578.41;5017676;28;45794;-65
2023/01/29 08:21:12;;;;;;;;;53.00;38.50;;;;;5.23;54.78;102605.63;5024918;28;45403;-67
2023/01/29 08:23:38;;;;;;;;;44.75;36.75;;;;;4.97;55.16;102542.69;5012891;28;45586;-65
2023/01/29 08:26:04;;;;;;;;;46.50;38.00;;;;;5.25;55.09;102596.06;5013003;28;45367;-66
2023/01/29 08:28:29;;;;;;;;;48.50;40.75;;;;;5.13;54.88;102573.91;5018227;28;46533;-67
2023/01/29 08:30:55;;;;;;;;;54.00;40.75;;;;;5.15;54.86;102601.47;5003441;28;46493;-66
2023/01/29 08:33:20;;;;;;;;;55.50;39.25;;;;;5.03;55.73;102603.13;5020509;28;45376;-67
2023/01/29 08:35:50;;;;;;;;;56.50;39.00;;;;;5.05;55.74;102599.81;5016228;28;45334;-65
2023/01/29 08:38:15;;;;;;;;;52.50;41.75;;;;;4.83;55.79;102536.28;5012789;28;45371;-65
2023/01/29 08:40:41;;;;;;;;;65.25;42.50;;;;;5.13;55.25;102587.16;5026333;28;45355;-62
2023/01/29 08:43:07;;;;;;;;;61.25;42.00;;;;;5.13;55.41;102588.09;5024791;28;45778;-63
2023/01/29 08:45:34;;;;;;;;;54.25;43.00;;;;;5.19;55.05;102606.19;5013114;28;45455;-63
2023/01/29 08:48:00;;;;;;;;;59.50;42.25;;;;;5.25;55.51;102611.06;5013497;28;45553;-64
2023/01/29 08:50:25;;;;;;;;;58.50;43.50;;;;;5.22;55.72;102593.19;5026352;28;45261;-63
2023/01/29 08:52:55;;;;;;;;;46.00;39.00;;;;;5.29;55.45;102605.19;5025830;28;45628;-64
2023/01/29 08:55:21;;;;;;;;;56.50;41.50;;;;;5.30;54.88;102613.25;5034114;28;45210;-65
2023/01/29 08:57:46;;;;;;;;;52.75;40.25;;;;;5.30;54.93;102610.59;5031379;28;45159;-64
2023/01/29 09:00:12;;;;;;;;;49.00;39.25;;;;;5.31;54.79;102630.06;5034773;28;44855;-63
2023/01/29 09:02:38;;;;;;;;;54.50;42.50;;;;;5.30;54.27;102645.06;5031634;28;45093;-64
2023/01/29 09:05:04;;;;;;;;;54.00;43.50;;;;;5.37;54.97;102650.84;5029285;28;45025;-65
2023/01/29 09:07:29;;;;;;;;;53.25;40.00;;;;;5.40;55.04;102638.75;5030492;28;45742;-65
2023/01/29 09:09:54;;;;;;;;;57.75;43.00;;;;;5.42;54.43;102639.78;5026211;28;45017;-65
2023/01/29 09:12:20;;;;;;;;;46.50;37.50;;;;;5.52;54.75;102644.97;5026422;28;45553;-64
2023/01/29 09:14:45;;;;;;;;;59.75;45.25;;;;;5.58;54.10;102644.56;5019188;28;45379;-65
2023/01/29 09:17:11;;;;;;;;;57.75;41.75;;;;;5.61;54.20;102643.84;5028182;28;54546;-63
2023/01/29 09:19:36;;;;;;;;;55.50;42.25;;;;;5.67;53.95;102639.94;5024691;28;45289;-66
2023/01/29 09:22:02;;;;;;;;;61.00;46.75;;;;;5.72;53.70;102635.00;5016670;28;45439;-66
2023/01/29 09:24:27;;;;;;;;;58.50;45.00;;;;;5.78;53.94;102637.22;5020143;28;45560;-65
2023/01/29 09:26:52;;;;;;;;;56.25;37.25;;;;;5.80;53.65;102632.94;5018765;28;45890;-63
2023/01/29 09:29:17;;;;;;;;;60.50;41.25;;;;;5.70;53.70;102611.00;5017819;28;45609;-63
2023/01/29 09:31:43;;;;;;;;;61.50;45.50;;;;;5.85;53.68;102640.41;5004646;28;46766;-62
2023/01/29 09:34:08;;;;;;;;;63.00;45.50;;;;;5.84;53.49;102625.34;5022427;28;45326;-65
2023/01/29 09:36:34;;;;;;;;;63.75;43.00;;;;;5.81;53.36;102624.19;5018649;28;46128;-63
2023/01/29 09:38:59;;;;;;;;;50.75;42.75;;;;;5.84;53.24;102633.28;5022677;28;45399;-63
2023/01/29 09:41:50;;;;;;;;;59.75;42.75;;;;;5.82;53.63;102626.00;5019638;28;45302;-64
2023/01/29 09:44:45;;;;;;;;;53.75;43.00;;;;;5.92;53.58;102628.53;4990460;28;45389;-65
2023/01/29 09:47:14;;;;;;;;;55.75;41.75;;;;;5.82;53.54;102604.78;5012452;28;47445;-67
2023/01/29 09:49:50;;;;;;;;;63.00;43.75;;;;;5.97;53.31;102618.31;5017031;28;45425;-66
2023/01/29 09:52:21;;;;;;;;;55.50;41.75;;;;;6.06;53.53;102629.63;5013214;28;45733;-64
2023/01/29 09:54:59;;;;;;;;;55.75;39.50;;;;;6.14;52.76;102627.53;5014193;28;45450;-63
2023/01/29 09:57:40;;;;;;;;;58.50;41.50;;;;;6.07;53.10;102604.94;5019710;28;45763;-68
2023/01/29 10:00:14;;;;;;;;;58.75;44.25;;;;;6.18;52.88;102633.19;5027573;28;44971;-67
2023/01/29 10:03:13;;;;;;;;;55.00;42.75;;;;;6.15;52.35;102640.91;5016980;28;45656;-65
2023/01/29 10:05:53;;;;;;;;;58.50;45.25;;;;;6.19;52.73;102636.78;5017422;28;45634;-64
2023/01/29 10:08:35;;;;;;;;;51.75;41.75;;;;;6.27;52.37;102648.91;5028117;28;45810;-66
2023/01/29 10:11:22;;;;;;;;;57.00;42.50;;;;;6.21;52.20;102619.25;5037698;28;45062;-65
2023/01/29 10:13:59;;;;;;;;;58.75;45.25;;;;;6.43;52.53;102632.34;5035136;28;45115;-64
2023/01/29 10:16:30;;;;;;;;;58.75;42.00;;;;;6.54;52.04;102623.44;5033269;28;45254;-64
2023/01/29 10:19:13;;;;;;;;;56.75;42.25;;;;;6.69;51.68;102628.03;5030583;28;49784;-65
2023/01/29 10:21:55;;;;;;;;;58.00;42.50;;;;;6.74;51.24;102623.97;5026037;28;45162;-65
2023/01/29 10:24:46;;;;;;;;;60.00;44.75;;;;;6.74;51.38;102622.22;5037002;28;44970;-65
2023/01/29 10:27:16;;;;;;;;;62.25;41.25;;;;;6.80;51.01;102609.41;5043175;28;45289;-65
2023/01/29 10:29:44;;;;;;;;;51.25;41.00;;;;;6.80;51.02;102613.78;5023587;28;45399;-68
2023/01/29 10:32:17;;;;;;;;;56.25;39.50;;;;;6.92;50.60;102600.47;5023047;28;45014;-66
2023/01/29 10:34:51;;;;;;;;;61.00;40.50;;;;;6.95;50.63;102584.75;5024888;28;45430;-66
2023/01/29 10:37:29;;;;;;;;;58.00;42.50;;;;;7.08;50.25;102587.44;5030545;28;45172;-67
2023/01/29 10:39:58;;;;;;;;;56.00;40.00;;;;;7.13;49.55;102591.34;5030688;28;45785;-66
2023/01/29 10:42:43;;;;;;;;;37.50;36.25;;;;;7.25;49.81;102580.63;5030815;28;44984;-68
2023/01/29 10:45:23;;;;;;;;;55.00;43.00;;;;;7.40;49.81;102571.88;5030506;28;45022;-66
2023/01/29 10:48:19;;;;;;;;;60.25;44.25;;;;;7.41;49.63;102569.31;5024608;28;45442;-66
2023/01/29 10:50:51;;;;;;;;;61.25;42.50;;;;;7.40;49.37;102558.59;5028416;28;45455;-66
2023/01/29 10:53:23;;;;;;;;;57.50;41.00;;;;;7.54;49.52;102569.34;5030074;28;45136;-66
2023/01/29 10:56:27;;;;;;;;;46.50;32.00;;;;;7.65;48.83;102564.72;5031612;28;45183;-65
2023/01/29 10:58:55;;;;;;;;;49.00;37.75;;;;;7.68;48.03;102564.03;5026010;28;45228;-66
2023/01/29 11:01:20;;;;;;;;;49.50;36.50;;;;;7.66;48.59;102555.94;5030090;28;45299;-66
2023/01/29 11:03:57;;;;;;;;;50.00;36.25;;;;;7.66;48.17;102552.38;5027765;28;45163;-65
2023/01/29 11:06:29;;;;;;;;;49.50;35.75;;;;;7.78;48.33;102568.22;5029715;28;45205;-64
2023/01/29 11:08:54;;;;;;;;;40.75;34.75;;;;;7.88;47.69;102558.28;5030703;28;45126;-65
2023/01/29 11:11:30;;;;;;;;;38.50;36.00;;;;;7.97;47.44;102554.41;5009909;28;46137;-67
2023/01/29 11:14:01;;;;;;;;;47.00;38.75;;;;;8.01;48.47;102560.03;5029171;28;45168;-68
2023/01/29 11:16:29;;;;;;;;;52.25;42.00;;;;;8.09;48.29;102561.44;5027983;28;45055;-66
2023/01/29 11:18:57;;;;;;;;;38.75;31.25;;;;;8.15;47.55;102557.34;5029811;28;45387;-66
2023/01/29 11:21:24;;;;;;;;;34.25;25.25;;;;;8.14;46.94;102542.22;5028673;28;45592;-63
2023/01/29 11:24:05;;;;;;;;;38.25;30.50;;;;;8.19;47.19;102541.69;5029706;28;45485;-66
2023/01/29 11:26:34;;;;;;;;;33.00;26.50;;;;;8.17;46.41;102522.03;5024756;28;45147;-66
2023/01/29 11:28:59;;;;;;;;;35.25;32.50;;;;;8.21;46.86;102516.06;5029582;28;45338;-65
2023/01/29 11:31:33;;;;;;;;;37.00;31.50;;;;;8.37;46.64;102539.28;5030079;28;45323;-67
2023/01/29 11:34:12;;;;;;;;;49.50;36.25;;;;;8.39;46.67;102529.63;5031734;28;45053;-68
2023/01/29 11:36:39;;;;;;;;;35.25;30.75;;;;;8.41;45.79;102540.41;5030607;28;45153;-67
2023/01/29 11:39:07;;;;;;;;;28.50;26.75;;;;;8.41;46.54;102529.75;5029835;28;45086;-68
2023/01/29 11:41:42;;;;;;;;;32.75;26.75;;;;;8.40;46.44;102523.50;5029728;28;45287;-67
2023/01/29 11:44:18;;;;;;;;;36.25;29.75;;;;;8.43;46.20;102533.44;5029893;28;45186;-65
2023/01/29 11:46:43;;;;;;;;;51.50;39.75;;;;;8.37;45.94;102517.97;5031030;28;45231;-66
2023/01/29 11:49:28;;;;;;;;;38.50;29.75;;;;;8.40;46.60;102506.63;5027014;28;45199;-65
2023/01/29 11:51:55;;;;;;;;;40.50;34.50;;;;;8.38;46.02;102492.25;5029061;28;45871;-65
2023/01/29 11:54:28;;;;;;;;;32.75;27.50;;;;;8.42;45.92;102504.97;5022192;28;45054;-66
2023/01/29 11:56:54;;;;;;;;;32.75;27.75;;;;;8.53;45.84;102514.59;5010628;28;45046;-67
2023/01/29 11:59:34;;;;;;;;;25.75;24.00;;;;;8.46;44.78;102517.66;5029220;28;45030;-66